sensor_id;sensor_type;location;lat;lon;timestamp;P1;durP1;ratioP1;P2;durP2;ratioP2
14789;SDS011;7486;51.010;10.366;2023-08-12T00:01:21;2.45;;;2.13;;
14789;SDS011;7486;51.010;10.366;2023-08-12T00:04:06;3.47;;;2.40;;
14789;SDS011;7486;51.010;10.366;2023-08-12T00:06:52;4.10;;;2.40;;
14789;SDS011;7486;51.010;10.366;2023-08-12T00:09:37;3.05;;;2.45;;
14789;SDS011;7486;51.010;10.366;2023-08-12T00:12:23;2.90;;;2.58;;
14789;SDS011;7486;51.010;10.366;2023-08-12T00:15:09;2.97;;;2.20;;
14789;SDS011;7486;51.010;10.366;2023-08-12T00:17:54;2.80;;;2.47;;
14789;SDS011;7486;51.010;10.366;2023-08-12T00:20:40;3.72;;;2.60;;
14789;SDS011;7486;51.010;10.366;2023-08-12T00:23:26;2.60;;;2.40;;
14789;SDS011;7486;51.010;10.366;2023-08-12T00:26:11;2.90;;;2.67;;
14789;SDS011;7486;51.010;10.366;2023-08-12T00:28:57;3.15;;;2.58;;
14789;SDS011;7486;51.010;10.366;2023-08-12T00:31:42;4.07;;;2.63;;
14789;SDS011;7486;51.010;10.366;2023-08-12T00:34:28;5.55;;;2.88;;
14789;SDS011;7486;51.010;10.366;2023-08-12T00:37:14;2.60;;;2.28;;
14789;SDS011;7486;51.010;10.366;2023-08-12T00:39:59;3.33;;;2.33;;
14789;SDS011;7486;51.010;10.366;2023-08-12T00:42:45;3.22;;;2.60;;
14789;SDS011;7486;51.010;10.366;2023-08-12T00:45:30;3.17;;;2.70;;
14789;SDS011;7486;51.010;10.366;2023-08-12T00:48:16;2.60;;;2.40;;
14789;SDS011;7486;51.010;10.366;2023-08-12T00:51:02;3.17;;;2.85;;
14789;SDS011;7486;51.010;10.366;2023-08-12T00:53:47;3.63;;;2.72;;
14789;SDS011;7486;51.010;10.366;2023-08-12T00:56:35;2.50;;;2.30;;
14789;SDS011;7486;51.010;10.366;2023-08-12T00:59:21;3.53;;;2.60;;
14789;SDS011;7486;51.010;10.366;2023-08-12T01:02:07;4.63;;;2.47;;
14789;SDS011;7486;51.010;10.366;2023-08-12T01:04:53;3.13;;;2.50;;
14789;SDS011;7486;51.010;10.366;2023-08-12T01:07:38;3.47;;;2.30;;
14789;SDS011;7486;51.010;10.366;2023-08-12T01:10:23;2.80;;;2.60;;
14789;SDS011;7486;51.010;10.366;2023-08-12T01:16:16;2.47;;;2.22;;
14789;SDS011;7486;51.010;10.366;2023-08-12T01:19:05;2.78;;;2.58;;
14789;SDS011;7486;51.010;10.366;2023-08-12T01:21:55;2.80;;;2.45;;
14789;SDS011;7486;51.010;10.366;2023-08-12T01:24:44;4.03;;;2.38;;
14789;SDS011;7486;51.010;10.366;2023-08-12T01:27:30;2.58;;;2.38;;
14789;SDS011;7486;51.010;10.366;2023-08-12T01:30:15;3.50;;;2.38;;
14789;SDS011;7486;51.010;10.366;2023-08-12T01:33:06;2.85;;;2.40;;
14789;SDS011;7486;51.010;10.366;2023-08-12T01:35:57;3.00;;;2.35;;
14789;SDS011;7486;51.010;10.366;2023-08-12T01:38:52;3.35;;;2.35;;
14789;SDS011;7486;51.010;10.366;2023-08-12T01:41:39;3.88;;;2.50;;
14789;SDS011;7486;51.010;10.366;2023-08-12T01:44:25;5.03;;;2.70;;
14789;SDS011;7486;51.010;10.366;2023-08-12T01:47:11;4.47;;;2.78;;
14789;SDS011;7486;51.010;10.366;2023-08-12T01:49:57;4.88;;;2.85;;
14789;SDS011;7486;51.010;10.366;2023-08-12T01:52:42;4.10;;;2.65;;
14789;SDS011;7486;51.010;10.366;2023-08-12T01:55:28;4.47;;;3.20;;
14789;SDS011;7486;51.010;10.366;2023-08-12T01:58:13;2.90;;;2.60;;
14789;SDS011;7486;51.010;10.366;2023-08-12T02:00:58;5.20;;;2.95;;
14789;SDS011;7486;51.010;10.366;2023-08-12T02:03:44;4.32;;;3.00;;
14789;SDS011;7486;51.010;10.366;2023-08-12T02:06:29;3.25;;;2.90;;
14789;SDS011;7486;51.010;10.366;2023-08-12T02:09:15;4.80;;;3.22;;
14789;SDS011;7486;51.010;10.366;2023-08-12T02:12:00;4.82;;;2.97;;
14789;SDS011;7486;51.010;10.366;2023-08-12T02:14:46;3.25;;;2.95;;
14789;SDS011;7486;51.010;10.366;2023-08-12T02:17:31;3.95;;;2.78;;
14789;SDS011;7486;51.010;10.366;2023-08-12T02:20:17;3.17;;;2.78;;
14789;SDS011;7486;51.010;10.366;2023-08-12T02:23:02;5.43;;;2.70;;
14789;SDS011;7486;51.010;10.366;2023-08-12T02:25:48;4.05;;;2.60;;
14789;SDS011;7486;51.010;10.366;2023-08-12T02:28:34;4.35;;;2.65;;
14789;SDS011;7486;51.010;10.366;2023-08-12T02:31:19;2.67;;;2.47;;
14789;SDS011;7486;51.010;10.366;2023-08-12T02:34:05;7.78;;;3.00;;
14789;SDS011;7486;51.010;10.366;2023-08-12T02:36:50;5.15;;;2.80;;
14789;SDS011;7486;51.010;10.366;2023-08-12T02:39:36;3.95;;;2.60;;
14789;SDS011;7486;51.010;10.366;2023-08-12T02:42:21;4.20;;;2.85;;
14789;SDS011;7486;51.010;10.366;2023-08-12T02:45:07;2.85;;;2.42;;
14789;SDS011;7486;51.010;10.366;2023-08-12T02:47:52;3.88;;;2.53;;
14789;SDS011;7486;51.010;10.366;2023-08-12T02:50:38;3.45;;;2.55;;
14789;SDS011;7486;51.010;10.366;2023-08-12T02:53:24;3.05;;;2.72;;
14789;SDS011;7486;51.010;10.366;2023-08-12T02:56:09;3.17;;;2.55;;
14789;SDS011;7486;51.010;10.366;2023-08-12T02:58:54;3.53;;;2.35;;
14789;SDS011;7486;51.010;10.366;2023-08-12T03:01:41;2.92;;;2.40;;
14789;SDS011;7486;51.010;10.366;2023-08-12T03:04:27;2.88;;;2.55;;
14789;SDS011;7486;51.010;10.366;2023-08-12T03:07:14;3.83;;;2.55;;
14789;SDS011;7486;51.010;10.366;2023-08-12T03:09:59;3.65;;;2.70;;
14789;SDS011;7486;51.010;10.366;2023-08-12T03:12:45;3.35;;;2.50;;
14789;SDS011;7486;51.010;10.366;2023-08-12T03:15:30;3.08;;;2.70;;
14789;SDS011;7486;51.010;10.366;2023-08-12T03:18:16;3.60;;;2.95;;
14789;SDS011;7486;51.010;10.366;2023-08-12T03:21:04;3.13;;;2.83;;
14789;SDS011;7486;51.010;10.366;2023-08-12T03:23:51;3.90;;;3.08;;
14789;SDS011;7486;51.010;10.366;2023-08-12T03:26:36;2.83;;;2.60;;
14789;SDS011;7486;51.010;10.366;2023-08-12T03:29:23;3.13;;;2.75;;
14789;SDS011;7486;51.010;10.366;2023-08-12T03:32:09;4.28;;;2.78;;
14789;SDS011;7486;51.010;10.366;2023-08-12T03:34:54;4.18;;;2.72;;
14789;SDS011;7486;51.010;10.366;2023-08-12T03:37:40;4.10;;;2.72;;
14789;SDS011;7486;51.010;10.366;2023-08-12T03:40:26;5.70;;;2.92;;
14789;SDS011;7486;51.010;10.366;2023-08-12T03:43:12;4.00;;;3.38;;
14789;SDS011;7486;51.010;10.366;2023-08-12T03:45:59;4.55;;;3.00;;
14789;SDS011;7486;51.010;10.366;2023-08-12T03:48:45;4.13;;;3.30;;
14789;SDS011;7486;51.010;10.366;2023-08-12T03:51:31;6.13;;;3.00;;
14789;SDS011;7486;51.010;10.366;2023-08-12T03:54:16;3.67;;;2.90;;
14789;SDS011;7486;51.010;10.366;2023-08-12T03:57:02;3.40;;;2.70;;
14789;SDS011;7486;51.010;10.366;2023-08-12T03:59:48;3.45;;;2.78;;
14789;SDS011;7486;51.010;10.366;2023-08-12T04:02:34;5.22;;;2.92;;
14789;SDS011;7486;51.010;10.366;2023-08-12T04:05:19;2.92;;;2.63;;
14789;SDS011;7486;51.010;10.366;2023-08-12T04:08:06;5.45;;;2.58;;
14789;SDS011;7486;51.010;10.366;2023-08-12T04:10:51;4.05;;;3.10;;
14789;SDS011;7486;51.010;10.366;2023-08-12T04:13:37;3.13;;;2.60;;
14789;SDS011;7486;51.010;10.366;2023-08-12T04:16:23;3.05;;;2.58;;
14789;SDS011;7486;51.010;10.366;2023-08-12T04:19:08;3.17;;;2.60;;
14789;SDS011;7486;51.010;10.366;2023-08-12T04:21:54;3.38;;;2.50;;
14789;SDS011;7486;51.010;10.366;2023-08-12T04:24:39;2.75;;;2.50;;
14789;SDS011;7486;51.010;10.366;2023-08-12T04:27:25;4.68;;;2.70;;
14789;SDS011;7486;51.010;10.366;2023-08-12T04:30:11;3.90;;;2.70;;
14789;SDS011;7486;51.010;10.366;2023-08-12T04:32:56;3.25;;;2.50;;
14789;SDS011;7486;51.010;10.366;2023-08-12T04:35:45;3.78;;;2.63;;
14789;SDS011;7486;51.010;10.366;2023-08-12T04:38:32;3.22;;;2.50;;
14789;SDS011;7486;51.010;10.366;2023-08-12T04:41:20;3.45;;;2.30;;
14789;SDS011;7486;51.010;10.366;2023-08-12T04:44:06;3.20;;;2.40;;
14789;SDS011;7486;51.010;10.366;2023-08-12T04:46:52;3.38;;;2.80;;
14789;SDS011;7486;51.010;10.366;2023-08-12T04:49:38;4.60;;;2.80;;
14789;SDS011;7486;51.010;10.366;2023-08-12T04:52:24;3.88;;;3.17;;
14789;SDS011;7486;51.010;10.366;2023-08-12T04:55:10;3.70;;;2.78;;
14789;SDS011;7486;51.010;10.366;2023-08-12T04:57:56;4.03;;;3.15;;
14789;SDS011;7486;51.010;10.366;2023-08-12T05:00:42;4.32;;;3.20;;
14789;SDS011;7486;51.010;10.366;2023-08-12T05:03:28;3.40;;;3.10;;
14789;SDS011;7486;51.010;10.366;2023-08-12T05:06:14;3.67;;;2.97;;
14789;SDS011;7486;51.010;10.366;2023-08-12T05:08:59;3.30;;;3.00;;
14789;SDS011;7486;51.010;10.366;2023-08-12T05:11:46;5.60;;;3.20;;
14789;SDS011;7486;51.010;10.366;2023-08-12T05:14:31;4.45;;;2.85;;
14789;SDS011;7486;51.010;10.366;2023-08-12T05:17:17;4.65;;;2.88;;
14789;SDS011;7486;51.010;10.366;2023-08-12T05:20:02;6.80;;;2.63;;
14789;SDS011;7486;51.010;10.366;2023-08-12T05:22:49;4.13;;;3.47;;
14789;SDS011;7486;51.010;10.366;2023-08-12T05:25:35;7.47;;;3.95;;
14789;SDS011;7486;51.010;10.366;2023-08-12T05:28:20;5.53;;;4.07;;
14789;SDS011;7486;51.010;10.366;2023-08-12T05:31:05;5.05;;;3.70;;
14789;SDS011;7486;51.010;10.366;2023-08-12T05:33:51;3.97;;;3.53;;
14789;SDS011;7486;51.010;10.366;2023-08-12T05:36:37;3.53;;;3.05;;
14789;SDS011;7486;51.010;10.366;2023-08-12T05:39:22;6.25;;;3.03;;
14789;SDS011;7486;51.010;10.366;2023-08-12T05:42:08;4.45;;;3.20;;
14789;SDS011;7486;51.010;10.366;2023-08-12T05:44:54;2.90;;;2.70;;
14789;SDS011;7486;51.010;10.366;2023-08-12T05:47:39;3.45;;;3.15;;
14789;SDS011;7486;51.010;10.366;2023-08-12T05:50:25;3.65;;;3.13;;
14789;SDS011;7486;51.010;10.366;2023-08-12T05:53:10;3.50;;;3.05;;
14789;SDS011;7486;51.010;10.366;2023-08-12T05:55:56;3.42;;;3.00;;
14789;SDS011;7486;51.010;10.366;2023-08-12T05:58:41;4.45;;;3.10;;
14789;SDS011;7486;51.010;10.366;2023-08-12T06:01:27;3.28;;;2.97;;
14789;SDS011;7486;51.010;10.366;2023-08-12T06:04:12;3.60;;;3.00;;
14789;SDS011;7486;51.010;10.366;2023-08-12T06:06:57;3.85;;;2.85;;
14789;SDS011;7486;51.010;10.366;2023-08-12T06:09:43;3.65;;;2.90;;
14789;SDS011;7486;51.010;10.366;2023-08-12T06:12:29;4.40;;;2.70;;
14789;SDS011;7486;51.010;10.366;2023-08-12T06:15:14;5.07;;;3.67;;
14789;SDS011;7486;51.010;10.366;2023-08-12T06:18:01;4.72;;;3.92;;
14789;SDS011;7486;51.010;10.366;2023-08-12T06:20:46;4.50;;;3.72;;
14789;SDS011;7486;51.010;10.366;2023-08-12T06:23:32;5.57;;;3.63;;
14789;SDS011;7486;51.010;10.366;2023-08-12T06:26:17;4.60;;;3.65;;
14789;SDS011;7486;51.010;10.366;2023-08-12T06:29:03;4.53;;;3.85;;
14789;SDS011;7486;51.010;10.366;2023-08-12T06:31:50;4.72;;;3.83;;
14789;SDS011;7486;51.010;10.366;2023-08-12T06:34:35;4.55;;;4.15;;
14789;SDS011;7486;51.010;10.366;2023-08-12T06:37:21;6.05;;;4.00;;
14789;SDS011;7486;51.010;10.366;2023-08-12T06:40:06;4.50;;;4.10;;
14789;SDS011;7486;51.010;10.366;2023-08-12T06:42:52;4.65;;;4.25;;
14789;SDS011;7486;51.010;10.366;2023-08-12T06:45:38;5.13;;;4.22;;
14789;SDS011;7486;51.010;10.366;2023-08-12T06:48:23;4.43;;;3.75;;
14789;SDS011;7486;51.010;10.366;2023-08-12T06:51:09;4.68;;;3.72;;
14789;SDS011;7486;51.010;10.366;2023-08-12T06:53:54;5.50;;;3.80;;
14789;SDS011;7486;51.010;10.366;2023-08-12T06:56:40;5.43;;;4.10;;
14789;SDS011;7486;51.010;10.366;2023-08-12T06:59:25;7.70;;;4.38;;
14789;SDS011;7486;51.010;10.366;2023-08-12T07:02:11;4.57;;;4.07;;
14789;SDS011;7486;51.010;10.366;2023-08-12T07:04:57;4.28;;;3.60;;
14789;SDS011;7486;51.010;10.366;2023-08-12T07:07:43;4.00;;;3.70;;
14789;SDS011;7486;51.010;10.366;2023-08-12T07:10:28;3.95;;;3.55;;
14789;SDS011;7486;51.010;10.366;2023-08-12T07:13:14;5.75;;;3.72;;
14789;SDS011;7486;51.010;10.366;2023-08-12T07:15:59;4.25;;;3.85;;
14789;SDS011;7486;51.010;10.366;2023-08-12T07:18:44;4.57;;;3.90;;
14789;SDS011;7486;51.010;10.366;2023-08-12T07:21:29;4.70;;;3.80;;
14789;SDS011;7486;51.010;10.366;2023-08-12T07:24:15;4.82;;;3.78;;
14789;SDS011;7486;51.010;10.366;2023-08-12T07:27:00;4.00;;;3.70;;
14789;SDS011;7486;51.010;10.366;2023-08-12T07:29:46;4.25;;;3.85;;
14789;SDS011;7486;51.010;10.366;2023-08-12T07:32:32;4.40;;;4.00;;
14789;SDS011;7486;51.010;10.366;2023-08-12T07:35:18;4.55;;;4.15;;
14789;SDS011;7486;51.010;10.366;2023-08-12T07:38:02;4.70;;;4.30;;
14789;SDS011;7486;51.010;10.366;2023-08-12T07:40:49;5.72;;;4.30;;
14789;SDS011;7486;51.010;10.366;2023-08-12T07:43:34;4.22;;;3.90;;
14789;SDS011;7486;51.010;10.366;2023-08-12T07:46:20;4.78;;;4.10;;
14789;SDS011;7486;51.010;10.366;2023-08-12T07:49:05;4.53;;;4.13;;
14789;SDS011;7486;51.010;10.366;2023-08-12T07:51:51;5.53;;;3.97;;
14789;SDS011;7486;51.010;10.366;2023-08-12T07:54:36;4.18;;;3.78;;
14789;SDS011;7486;51.010;10.366;2023-08-12T07:57:22;3.78;;;3.47;;
14789;SDS011;7486;51.010;10.366;2023-08-12T08:00:08;3.60;;;3.30;;
14789;SDS011;7486;51.010;10.366;2023-08-12T08:02:54;4.97;;;3.20;;
14789;SDS011;7486;51.010;10.366;2023-08-12T08:05:40;3.40;;;3.10;;
14789;SDS011;7486;51.010;10.366;2023-08-12T08:08:25;4.20;;;3.22;;
14789;SDS011;7486;51.010;10.366;2023-08-12T08:11:11;4.55;;;3.40;;
14789;SDS011;7486;51.010;10.366;2023-08-12T08:13:57;3.50;;;3.20;;
14789;SDS011;7486;51.010;10.366;2023-08-12T08:16:43;3.42;;;3.13;;
14789;SDS011;7486;51.010;10.366;2023-08-12T08:19:28;3.38;;;2.88;;
14789;SDS011;7486;51.010;10.366;2023-08-12T08:22:15;3.30;;;3.00;;
14789;SDS011;7486;51.010;10.366;2023-08-12T08:25:00;3.28;;;2.97;;
14789;SDS011;7486;51.010;10.366;2023-08-12T08:27:46;3.45;;;2.90;;
14789;SDS011;7486;51.010;10.366;2023-08-12T08:30:31;3.60;;;3.08;;
14789;SDS011;7486;51.010;10.366;2023-08-12T08:33:17;3.63;;;3.25;;
14789;SDS011;7486;51.010;10.366;2023-08-12T08:36:02;3.40;;;3.10;;
14789;SDS011;7486;51.010;10.366;2023-08-12T08:38:48;3.65;;;2.80;;
14789;SDS011;7486;51.010;10.366;2023-08-12T08:41:36;3.33;;;3.08;;
14789;SDS011;7486;51.010;10.366;2023-08-12T08:44:23;3.65;;;2.92;;
14789;SDS011;7486;51.010;10.366;2023-08-12T08:47:14;3.40;;;3.10;;
14789;SDS011;7486;51.010;10.366;2023-08-12T08:50:04;3.50;;;3.20;;
14789;SDS011;7486;51.010;10.366;2023-08-12T08:52:49;4.18;;;3.08;;
14789;SDS011;7486;51.010;10.366;2023-08-12T08:55:36;4.15;;;2.85;;
14789;SDS011;7486;51.010;10.366;2023-08-12T08:58:22;3.47;;;3.08;;
14789;SDS011;7486;51.010;10.366;2023-08-12T09:01:10;5.65;;;3.20;;
14789;SDS011;7486;51.010;10.366;2023-08-12T09:03:56;3.58;;;2.72;;
14789;SDS011;7486;51.010;10.366;2023-08-12T09:06:43;2.88;;;2.67;;
14789;SDS011;7486;51.010;10.366;2023-08-12T09:09:30;3.92;;;3.10;;
14789;SDS011;7486;51.010;10.366;2023-08-12T09:12:16;3.05;;;2.85;;
14789;SDS011;7486;51.010;10.366;2023-08-12T09:15:03;3.15;;;2.67;;
14789;SDS011;7486;51.010;10.366;2023-08-12T09:17:49;4.03;;;2.90;;
14789;SDS011;7486;51.010;10.366;2023-08-12T09:20:34;3.30;;;3.00;;
14789;SDS011;7486;51.010;10.366;2023-08-12T09:23:20;3.13;;;2.78;;
14789;SDS011;7486;51.010;10.366;2023-08-12T09:26:19;3.00;;;2.80;;
14789;SDS011;7486;51.010;10.366;2023-08-12T09:29:05;3.00;;;2.80;;
14789;SDS011;7486;51.010;10.366;2023-08-12T09:31:51;2.90;;;2.63;;
14789;SDS011;7486;51.010;10.366;2023-08-12T09:34:36;2.75;;;2.55;;
14789;SDS011;7486;51.010;10.366;2023-08-12T09:37:23;3.03;;;2.75;;
14789;SDS011;7486;51.010;10.366;2023-08-12T09:40:09;3.47;;;2.90;;
14789;SDS011;7486;51.010;10.366;2023-08-12T09:42:55;3.25;;;2.75;;
14789;SDS011;7486;51.010;10.366;2023-08-12T09:45:43;3.10;;;2.80;;
14789;SDS011;7486;51.010;10.366;2023-08-12T09:48:30;3.17;;;2.40;;
14789;SDS011;7486;51.010;10.366;2023-08-12T09:51:16;4.43;;;2.42;;
14789;SDS011;7486;51.010;10.366;2023-08-12T09:54:02;3.60;;;2.70;;
14789;SDS011;7486;51.010;10.366;2023-08-12T09:56:48;2.75;;;2.53;;
14789;SDS011;7486;51.010;10.366;2023-08-12T09:59:34;3.20;;;2.60;;
14789;SDS011;7486;51.010;10.366;2023-08-12T10:02:20;3.03;;;2.67;;
14789;SDS011;7486;51.010;10.366;2023-08-12T10:05:06;3.08;;;2.28;;
14789;SDS011;7486;51.010;10.366;2023-08-12T10:07:55;2.70;;;2.50;;
14789;SDS011;7486;51.010;10.366;2023-08-12T10:10:41;3.00;;;2.70;;
14789;SDS011;7486;51.010;10.366;2023-08-12T10:13:28;2.67;;;2.47;;
14789;SDS011;7486;51.010;10.366;2023-08-12T10:16:13;3.63;;;2.92;;
14789;SDS011;7486;51.010;10.366;2023-08-12T10:18:59;3.42;;;3.05;;
14789;SDS011;7486;51.010;10.366;2023-08-12T10:21:47;3.08;;;2.75;;
14789;SDS011;7486;51.010;10.366;2023-08-12T10:24:34;3.17;;;2.88;;
14789;SDS011;7486;51.010;10.366;2023-08-12T10:27:20;2.80;;;2.60;;
14789;SDS011;7486;51.010;10.366;2023-08-12T10:30:05;11.43;;;5.63;;
14789;SDS011;7486;51.010;10.366;2023-08-12T10:32:51;3.10;;;2.80;;
14789;SDS011;7486;51.010;10.366;2023-08-12T10:35:40;3.90;;;2.78;;
14789;SDS011;7486;51.010;10.366;2023-08-12T10:38:30;3.15;;;2.90;;
14789;SDS011;7486;51.010;10.366;2023-08-12T10:41:20;3.08;;;2.80;;
14789;SDS011;7486;51.010;10.366;2023-08-12T10:44:06;3.03;;;2.83;;
14789;SDS011;7486;51.010;10.366;2023-08-12T10:46:52;3.40;;;2.55;;
14789;SDS011;7486;51.010;10.366;2023-08-12T10:49:48;2.90;;;2.70;;
14789;SDS011;7486;51.010;10.366;2023-08-12T10:52:34;2.95;;;2.67;;
14789;SDS011;7486;51.010;10.366;2023-08-12T10:55:23;3.45;;;2.80;;
14789;SDS011;7486;51.010;10.366;2023-08-12T10:58:13;3.35;;;3.13;;
14789;SDS011;7486;51.010;10.366;2023-08-12T11:01:13;3.20;;;2.70;;
14789;SDS011;7486;51.010;10.366;2023-08-12T11:04:02;3.47;;;2.97;;
14789;SDS011;7486;51.010;10.366;2023-08-12T11:07:09;3.40;;;2.83;;
14789;SDS011;7486;51.010;10.366;2023-08-12T11:10:03;3.13;;;2.92;;
14789;SDS011;7486;51.010;10.366;2023-08-12T11:15:44;4.30;;;2.90;;
14789;SDS011;7486;51.010;10.366;2023-08-12T11:18:30;3.67;;;3.08;;
14789;SDS011;7486;51.010;10.366;2023-08-12T11:21:16;2.63;;;2.42;;
14789;SDS011;7486;51.010;10.366;2023-08-12T11:24:03;3.60;;;2.80;;
14789;SDS011;7486;51.010;10.366;2023-08-12T11:26:49;2.80;;;2.50;;
14789;SDS011;7486;51.010;10.366;2023-08-12T11:29:35;3.70;;;2.78;;
14789;SDS011;7486;51.010;10.366;2023-08-12T11:32:22;3.22;;;2.92;;
14789;SDS011;7486;51.010;10.366;2023-08-12T11:35:08;3.05;;;2.70;;
14789;SDS011;7486;51.010;10.366;2023-08-12T11:37:55;3.88;;;2.83;;
14789;SDS011;7486;51.010;10.366;2023-08-12T11:40:42;3.08;;;2.75;;
14789;SDS011;7486;51.010;10.366;2023-08-12T11:43:28;3.08;;;2.78;;
14789;SDS011;7486;51.010;10.366;2023-08-12T11:46:15;3.65;;;2.50;;
14789;SDS011;7486;51.010;10.366;2023-08-12T11:49:01;2.40;;;2.20;;
14789;SDS011;7486;51.010;10.366;2023-08-12T11:51:47;2.67;;;2.47;;
14789;SDS011;7486;51.010;10.366;2023-08-12T11:54:34;2.70;;;2.25;;
14789;SDS011;7486;51.010;10.366;2023-08-12T11:57:21;2.25;;;1.90;;
14789;SDS011;7486;51.010;10.366;2023-08-12T12:00:09;2.60;;;1.80;;
14789;SDS011;7486;51.010;10.366;2023-08-12T12:02:59;3.40;;;1.70;;
14789;SDS011;7486;51.010;10.366;2023-08-12T12:05:45;2.95;;;1.90;;
14789;SDS011;7486;51.010;10.366;2023-08-12T12:08:31;3.38;;;1.90;;
14789;SDS011;7486;51.010;10.366;2023-08-12T12:11:17;1.92;;;1.83;;
14789;SDS011;7486;51.010;10.366;2023-08-12T12:14:05;3.33;;;1.90;;
14789;SDS011;7486;51.010;10.366;2023-08-12T12:16:51;2.10;;;1.90;;
14789;SDS011;7486;51.010;10.366;2023-08-12T12:19:37;2.45;;;1.83;;
14789;SDS011;7486;51.010;10.366;2023-08-12T12:22:26;2.30;;;2.00;;
14789;SDS011;7486;51.010;10.366;2023-08-12T12:25:14;2.05;;;1.58;;
14789;SDS011;7486;51.010;10.366;2023-08-12T12:28:01;1.90;;;1.60;;
14789;SDS011;7486;51.010;10.366;2023-08-12T12:30:47;3.00;;;1.60;;
14789;SDS011;7486;51.010;10.366;2023-08-12T12:33:32;2.25;;;1.88;;
14789;SDS011;7486;51.010;10.366;2023-08-12T12:36:17;3.00;;;1.88;;
14789;SDS011;7486;51.010;10.366;2023-08-12T12:39:03;2.63;;;2.13;;
14789;SDS011;7486;51.010;10.366;2023-08-12T12:41:49;5.03;;;3.42;;
14789;SDS011;7486;51.010;10.366;2023-08-12T12:44:34;4.25;;;2.25;;
14789;SDS011;7486;51.010;10.366;2023-08-12T12:47:20;2.88;;;1.83;;
14789;SDS011;7486;51.010;10.366;2023-08-12T12:50:05;1.95;;;1.60;;
14789;SDS011;7486;51.010;10.366;2023-08-12T12:52:51;2.05;;;1.75;;
14789;SDS011;7486;51.010;10.366;2023-08-12T12:55:37;3.22;;;1.55;;
14789;SDS011;7486;51.010;10.366;2023-08-12T12:58:23;2.10;;;1.80;;
14789;SDS011;7486;51.010;10.366;2023-08-12T13:01:08;1.90;;;1.30;;
14789;SDS011;7486;51.010;10.366;2023-08-12T13:03:54;1.75;;;1.35;;
14789;SDS011;7486;51.010;10.366;2023-08-12T13:06:39;2.55;;;1.30;;
14789;SDS011;7486;51.010;10.366;2023-08-12T13:09:25;2.13;;;1.20;;
14789;SDS011;7486;51.010;10.366;2023-08-12T13:12:11;2.00;;;1.30;;
14789;SDS011;7486;51.010;10.366;2023-08-12T13:14:56;2.92;;;1.40;;
14789;SDS011;7486;51.010;10.366;2023-08-12T13:17:44;1.30;;;1.20;;
14789;SDS011;7486;51.010;10.366;2023-08-12T13:20:29;1.45;;;1.30;;
14789;SDS011;7486;51.010;10.366;2023-08-12T13:23:14;2.33;;;1.35;;
14789;SDS011;7486;51.010;10.366;2023-08-12T13:26:00;2.13;;;1.38;;
14789;SDS011;7486;51.010;10.366;2023-08-12T13:28:45;1.75;;;1.30;;
14789;SDS011;7486;51.010;10.366;2023-08-12T13:31:31;1.58;;;1.48;;
14789;SDS011;7486;51.010;10.366;2023-08-12T13:34:16;2.28;;;1.40;;
14789;SDS011;7486;51.010;10.366;2023-08-12T13:37:02;1.75;;;1.50;;
14789;SDS011;7486;51.010;10.366;2023-08-12T13:39:48;1.88;;;1.42;;
14789;SDS011;7486;51.010;10.366;2023-08-12T13:42:33;3.03;;;1.60;;
14789;SDS011;7486;51.010;10.366;2023-08-12T13:45:19;3.22;;;1.70;;
14789;SDS011;7486;51.010;10.366;2023-08-12T13:48:04;2.67;;;1.48;;
14789;SDS011;7486;51.010;10.366;2023-08-12T13:50:50;1.70;;;1.58;;
14789;SDS011;7486;51.010;10.366;2023-08-12T13:53:35;2.53;;;1.60;;
14789;SDS011;7486;51.010;10.366;2023-08-12T13:56:21;2.08;;;1.88;;
14789;SDS011;7486;51.010;10.366;2023-08-12T13:59:07;2.38;;;1.80;;
14789;SDS011;7486;51.010;10.366;2023-08-12T14:01:52;2.47;;;2.15;;
14789;SDS011;7486;51.010;10.366;2023-08-12T14:04:37;2.45;;;1.98;;
14789;SDS011;7486;51.010;10.366;2023-08-12T14:07:23;2.80;;;2.05;;
14789;SDS011;7486;51.010;10.366;2023-08-12T14:10:08;3.28;;;2.42;;
14789;SDS011;7486;51.010;10.366;2023-08-12T14:12:54;5.00;;;2.00;;
14789;SDS011;7486;51.010;10.366;2023-08-12T14:15:40;2.22;;;1.90;;
14789;SDS011;7486;51.010;10.366;2023-08-12T14:18:25;2.58;;;1.98;;
14789;SDS011;7486;51.010;10.366;2023-08-12T14:21:11;2.70;;;1.90;;
14789;SDS011;7486;51.010;10.366;2023-08-12T14:23:57;2.20;;;2.00;;
14789;SDS011;7486;51.010;10.366;2023-08-12T14:26:42;2.42;;;1.90;;
14789;SDS011;7486;51.010;10.366;2023-08-12T14:29:28;2.40;;;2.00;;
14789;SDS011;7486;51.010;10.366;2023-08-12T14:32:15;2.25;;;1.95;;
14789;SDS011;7486;51.010;10.366;2023-08-12T14:35:00;2.38;;;1.92;;
14789;SDS011;7486;51.010;10.366;2023-08-12T14:37:46;2.42;;;2.13;;
14789;SDS011;7486;51.010;10.366;2023-08-12T14:40:31;3.25;;;2.10;;
14789;SDS011;7486;51.010;10.366;2023-08-12T14:43:17;2.03;;;1.90;;
14789;SDS011;7486;51.010;10.366;2023-08-12T14:46:02;2.72;;;2.00;;
14789;SDS011;7486;51.010;10.366;2023-08-12T14:48:47;2.10;;;1.90;;
14789;SDS011;7486;51.010;10.366;2023-08-12T14:51:32;2.30;;;2.10;;
14789;SDS011;7486;51.010;10.366;2023-08-12T14:54:19;2.30;;;1.95;;
14789;SDS011;7486;51.010;10.366;2023-08-12T14:57:04;2.42;;;2.22;;
14789;SDS011;7486;51.010;10.366;2023-08-12T14:59:50;2.95;;;2.25;;
14789;SDS011;7486;51.010;10.366;2023-08-12T15:02:36;3.75;;;2.20;;
14789;SDS011;7486;51.010;10.366;2023-08-12T15:05:21;3.42;;;2.72;;
14789;SDS011;7486;51.010;10.366;2023-08-12T15:08:06;2.60;;;2.40;;
14789;SDS011;7486;51.010;10.366;2023-08-12T15:10:52;3.30;;;2.53;;
14789;SDS011;7486;51.010;10.366;2023-08-12T15:13:37;3.00;;;2.55;;
14789;SDS011;7486;51.010;10.366;2023-08-12T15:16:24;2.60;;;2.40;;
14789;SDS011;7486;51.010;10.366;2023-08-12T15:19:10;3.42;;;2.30;;
14789;SDS011;7486;51.010;10.366;2023-08-12T15:21:56;2.75;;;2.30;;
14789;SDS011;7486;51.010;10.366;2023-08-12T15:24:41;2.42;;;2.20;;
14789;SDS011;7486;51.010;10.366;2023-08-12T15:27:26;2.35;;;1.90;;
14789;SDS011;7486;51.010;10.366;2023-08-12T15:30:12;3.35;;;2.05;;
14789;SDS011;7486;51.010;10.366;2023-08-12T15:32:57;2.83;;;2.00;;
14789;SDS011;7486;51.010;10.366;2023-08-12T15:35:42;1.88;;;1.67;;
14789;SDS011;7486;51.010;10.366;2023-08-12T15:38:28;1.90;;;1.70;;
14789;SDS011;7486;51.010;10.366;2023-08-12T15:41:15;2.72;;;2.20;;
14789;SDS011;7486;51.010;10.366;2023-08-12T15:44:01;3.15;;;1.90;;
14789;SDS011;7486;51.010;10.366;2023-08-12T15:46:47;2.25;;;2.00;;
14789;SDS011;7486;51.010;10.366;2023-08-12T15:49:32;2.40;;;2.00;;
14789;SDS011;7486;51.010;10.366;2023-08-12T15:52:18;2.75;;;1.80;;
14789;SDS011;7486;51.010;10.366;2023-08-12T15:55:04;3.50;;;2.10;;
14789;SDS011;7486;51.010;10.366;2023-08-12T15:57:49;2.13;;;1.92;;
14789;SDS011;7486;51.010;10.366;2023-08-12T16:00:35;2.10;;;1.90;;
14789;SDS011;7486;51.010;10.366;2023-08-12T16:03:20;3.42;;;1.90;;
14789;SDS011;7486;51.010;10.366;2023-08-12T16:06:06;2.15;;;1.95;;
14789;SDS011;7486;51.010;10.366;2023-08-12T16:08:51;2.10;;;1.90;;
14789;SDS011;7486;51.010;10.366;2023-08-12T16:11:56;2.80;;;2.33;;
14789;SDS011;7486;51.010;10.366;2023-08-12T16:14:42;2.42;;;2.10;;
14789;SDS011;7486;51.010;10.366;2023-08-12T16:17:27;2.70;;;1.98;;
14789;SDS011;7486;51.010;10.366;2023-08-12T16:20:12;3.35;;;2.10;;
14789;SDS011;7486;51.010;10.366;2023-08-12T16:22:58;2.20;;;2.00;;
14789;SDS011;7486;51.010;10.366;2023-08-12T16:25:44;1.80;;;1.70;;
14789;SDS011;7486;51.010;10.366;2023-08-12T16:28:29;2.15;;;1.95;;
14789;SDS011;7486;51.010;10.366;2023-08-12T16:31:15;2.25;;;1.90;;
14789;SDS011;7486;51.010;10.366;2023-08-12T16:34:00;2.72;;;1.70;;
14789;SDS011;7486;51.010;10.366;2023-08-12T16:36:45;1.80;;;1.70;;
14789;SDS011;7486;51.010;10.366;2023-08-12T16:39:31;1.90;;;1.80;;
14789;SDS011;7486;51.010;10.366;2023-08-12T16:42:16;2.67;;;2.00;;
14789;SDS011;7486;51.010;10.366;2023-08-12T16:45:04;3.10;;;1.80;;
14789;SDS011;7486;51.010;10.366;2023-08-12T16:47:50;2.10;;;1.85;;